sensor_id;sensor_type;location;lat;lon;timestamp;P1;durP1;ratioP1;P2;durP2;ratioP2
24617;SDS011;12762;51.730;5.356;2022-12-26T00:01:18;38.10;;;16.37;;
24617;SDS011;12762;51.730;5.356;2022-12-26T00:03:46;29.67;;;15.70;;
24617;SDS011;12762;51.730;5.356;2022-12-26T00:06:14;32.17;;;16.07;;
24617;SDS011;12762;51.730;5.356;2022-12-26T00:08:44;33.27;;;16.80;;
24617;SDS011;12762;51.730;5.356;2022-12-26T00:11:12;33.40;;;15.83;;
24617;SDS011;12762;51.730;5.356;2022-12-26T00:13:39;33.77;;;17.20;;
24617;SDS011;12762;51.730;5.356;2022-12-26T00:18:42;31.33;;;16.20;;
24617;SDS011;12762;51.730;5.356;2022-12-26T00:21:13;30.83;;;15.47;;
24617;SDS011;12762;51.730;5.356;2022-12-26T00:23:41;33.97;;;16.67;;
24617;SDS011;12762;51.730;5.356;2022-12-26T00:26:13;29.67;;;15.53;;
24617;SDS011;12762;51.730;5.356;2022-12-26T00:28:45;34.53;;;16.97;;
24617;SDS011;12762;51.730;5.356;2022-12-26T00:31:16;32.57;;;16.17;;
24617;SDS011;12762;51.730;5.356;2022-12-26T00:33:45;33.37;;;16.43;;
24617;SDS011;12762;51.730;5.356;2022-12-26T00:36:13;30.83;;;16.40;;
24617;SDS011;12762;51.730;5.356;2022-12-26T00:38:50;29.73;;;16.43;;
24617;SDS011;12762;51.730;5.356;2022-12-26T00:41:18;32.53;;;17.07;;
24617;SDS011;12762;51.730;5.356;2022-12-26T00:43:46;30.53;;;16.03;;
24617;SDS011;12762;51.730;5.356;2022-12-26T00:46:13;30.27;;;16.40;;
24617;SDS011;12762;51.730;5.356;2022-12-26T00:48:41;35.30;;;16.57;;
24617;SDS011;12762;51.730;5.356;2022-12-26T00:51:08;37.00;;;17.10;;
24617;SDS011;12762;51.730;5.356;2022-12-26T00:53:35;34.00;;;16.80;;
24617;SDS011;12762;51.730;5.356;2022-12-26T00:56:02;33.83;;;17.60;;
24617;SDS011;12762;51.730;5.356;2022-12-26T00:58:29;36.30;;;18.27;;
24617;SDS011;12762;51.730;5.356;2022-12-26T01:03:34;30.77;;;16.20;;
24617;SDS011;12762;51.730;5.356;2022-12-26T01:06:02;31.60;;;17.13;;
24617;SDS011;12762;51.730;5.356;2022-12-26T01:08:29;32.17;;;16.33;;
24617;SDS011;12762;51.730;5.356;2022-12-26T01:11:01;32.57;;;17.33;;
24617;SDS011;12762;51.730;5.356;2022-12-26T01:13:29;29.67;;;15.90;;
24617;SDS011;12762;51.730;5.356;2022-12-26T01:15:58;29.37;;;16.10;;
24617;SDS011;12762;51.730;5.356;2022-12-26T01:18:25;31.17;;;16.63;;
24617;SDS011;12762;51.730;5.356;2022-12-26T01:20:56;29.47;;;16.70;;
24617;SDS011;12762;51.730;5.356;2022-12-26T01:23:24;31.43;;;16.67;;
24617;SDS011;12762;51.730;5.356;2022-12-26T01:25:51;31.30;;;16.40;;
24617;SDS011;12762;51.730;5.356;2022-12-26T01:28:38;31.07;;;15.93;;
24617;SDS011;12762;51.730;5.356;2022-12-26T01:31:05;29.57;;;15.73;;
24617;SDS011;12762;51.730;5.356;2022-12-26T01:33:32;32.40;;;17.03;;
24617;SDS011;12762;51.730;5.356;2022-12-26T01:35:59;28.60;;;16.13;;
24617;SDS011;12762;51.730;5.356;2022-12-26T01:38:26;29.67;;;16.47;;
24617;SDS011;12762;51.730;5.356;2022-12-26T01:40:55;30.80;;;17.17;;
24617;SDS011;12762;51.730;5.356;2022-12-26T01:43:54;28.57;;;16.00;;
24617;SDS011;12762;51.730;5.356;2022-12-26T01:46:44;30.13;;;16.33;;
24617;SDS011;12762;51.730;5.356;2022-12-26T01:49:20;32.50;;;17.50;;
24617;SDS011;12762;51.730;5.356;2022-12-26T01:51:56;30.03;;;16.97;;
24617;SDS011;12762;51.730;5.356;2022-12-26T01:54:29;30.63;;;16.77;;
24617;SDS011;12762;51.730;5.356;2022-12-26T01:57:18;32.13;;;17.57;;
24617;SDS011;12762;51.730;5.356;2022-12-26T01:59:53;29.30;;;17.10;;
24617;SDS011;12762;51.730;5.356;2022-12-26T02:02:22;33.37;;;18.07;;
24617;SDS011;12762;51.730;5.356;2022-12-26T02:04:52;32.33;;;18.07;;
24617;SDS011;12762;51.730;5.356;2022-12-26T02:07:41;32.90;;;18.00;;
24617;SDS011;12762;51.730;5.356;2022-12-26T02:10:12;36.07;;;19.43;;
24617;SDS011;12762;51.730;5.356;2022-12-26T02:12:42;33.27;;;18.10;;
24617;SDS011;12762;51.730;5.356;2022-12-26T02:15:11;32.07;;;17.43;;
24617;SDS011;12762;51.730;5.356;2022-12-26T02:17:40;32.43;;;18.73;;
24617;SDS011;12762;51.730;5.356;2022-12-26T02:20:12;33.57;;;18.03;;
24617;SDS011;12762;51.730;5.356;2022-12-26T02:34:08;33.03;;;19.13;;
24617;SDS011;12762;51.730;5.356;2022-12-26T02:39:51;33.90;;;19.87;;
24617;SDS011;12762;51.730;5.356;2022-12-26T02:42:50;40.50;;;21.73;;
24617;SDS011;12762;51.730;5.356;2022-12-26T02:45:34;39.70;;;21.60;;
24617;SDS011;12762;51.730;5.356;2022-12-26T02:57:21;41.03;;;21.50;;
24617;SDS011;12762;51.730;5.356;2022-12-26T03:00:11;41.37;;;22.70;;
24617;SDS011;12762;51.730;5.356;2022-12-26T03:03:02;40.40;;;21.73;;
24617;SDS011;12762;51.730;5.356;2022-12-26T03:06:02;42.33;;;22.30;;
24617;SDS011;12762;51.730;5.356;2022-12-26T03:09:03;37.17;;;21.13;;
24617;SDS011;12762;51.730;5.356;2022-12-26T03:11:56;41.67;;;21.90;;
24617;SDS011;12762;51.730;5.356;2022-12-26T03:15:05;38.37;;;21.37;;
24617;SDS011;12762;51.730;5.356;2022-12-26T03:17:57;43.03;;;22.73;;
24617;SDS011;12762;51.730;5.356;2022-12-26T03:20:32;36.70;;;20.73;;
24617;SDS011;12762;51.730;5.356;2022-12-26T03:23:05;37.83;;;21.47;;
24617;SDS011;12762;51.730;5.356;2022-12-26T03:25:39;33.17;;;20.03;;
24617;SDS011;12762;51.730;5.356;2022-12-26T03:28:30;34.23;;;19.23;;
24617;SDS011;12762;51.730;5.356;2022-12-26T03:30:57;32.17;;;19.33;;
24617;SDS011;12762;51.730;5.356;2022-12-26T03:33:28;35.37;;;18.80;;
24617;SDS011;12762;51.730;5.356;2022-12-26T03:45:23;27.73;;;16.80;;
24617;SDS011;12762;51.730;5.356;2022-12-26T03:52:00;25.40;;;16.57;;
24617;SDS011;12762;51.730;5.356;2022-12-26T03:57:53;28.20;;;16.67;;
24617;SDS011;12762;51.730;5.356;2022-12-26T04:00:53;24.70;;;15.47;;
24617;SDS011;12762;51.730;5.356;2022-12-26T04:03:42;25.30;;;14.97;;
24617;SDS011;12762;51.730;5.356;2022-12-26T04:06:31;22.33;;;14.13;;
24617;SDS011;12762;51.730;5.356;2022-12-26T04:09:28;24.77;;;14.80;;
24617;SDS011;12762;51.730;5.356;2022-12-26T04:12:19;21.77;;;13.47;;
24617;SDS011;12762;51.730;5.356;2022-12-26T04:15:19;22.83;;;14.10;;
24617;SDS011;12762;51.730;5.356;2022-12-26T04:18:16;18.97;;;12.00;;
24617;SDS011;12762;51.730;5.356;2022-12-26T04:24:11;19.43;;;11.17;;
24617;SDS011;12762;51.730;5.356;2022-12-26T04:27:03;18.63;;;10.87;;
24617;SDS011;12762;51.730;5.356;2022-12-26T04:29:51;15.67;;;10.20;;
24617;SDS011;12762;51.730;5.356;2022-12-26T04:32:42;16.93;;;10.20;;
24617;SDS011;12762;51.730;5.356;2022-12-26T04:35:30;15.47;;;9.53;;
24617;SDS011;12762;51.730;5.356;2022-12-26T04:38:26;17.57;;;9.40;;
24617;SDS011;12762;51.730;5.356;2022-12-26T04:41:14;15.93;;;9.60;;
24617;SDS011;12762;51.730;5.356;2022-12-26T04:44:02;12.47;;;8.00;;
24617;SDS011;12762;51.730;5.356;2022-12-26T04:46:34;12.20;;;7.90;;
24617;SDS011;12762;51.730;5.356;2022-12-26T04:49:05;12.87;;;8.20;;
24617;SDS011;12762;51.730;5.356;2022-12-26T04:51:53;12.57;;;7.57;;
24617;SDS011;12762;51.730;5.356;2022-12-26T04:54:23;11.70;;;8.10;;
24617;SDS011;12762;51.730;5.356;2022-12-26T04:56:51;14.00;;;7.73;;
24617;SDS011;12762;51.730;5.356;2022-12-26T04:59:18;11.97;;;7.70;;
24617;SDS011;12762;51.730;5.356;2022-12-26T05:01:45;12.43;;;7.53;;
24617;SDS011;12762;51.730;5.356;2022-12-26T05:04:31;10.40;;;7.00;;
24617;SDS011;12762;51.730;5.356;2022-12-26T05:07:37;10.70;;;6.80;;
24617;SDS011;12762;51.730;5.356;2022-12-26T05:10:23;9.67;;;6.20;;
24617;SDS011;12762;51.730;5.356;2022-12-26T05:12:52;11.00;;;6.73;;
24617;SDS011;12762;51.730;5.356;2022-12-26T05:15:19;8.63;;;5.90;;
24617;SDS011;12762;51.730;5.356;2022-12-26T05:17:47;11.13;;;6.90;;
24617;SDS011;12762;51.730;5.356;2022-12-26T05:20:33;9.23;;;6.03;;
24617;SDS011;12762;51.730;5.356;2022-12-26T05:23:19;11.00;;;6.57;;
24617;SDS011;12762;51.730;5.356;2022-12-26T05:26:16;12.00;;;7.20;;
24617;SDS011;12762;51.730;5.356;2022-12-26T05:29:04;9.50;;;6.17;;
24617;SDS011;12762;51.730;5.356;2022-12-26T05:31:34;9.97;;;6.33;;
24617;SDS011;12762;51.730;5.356;2022-12-26T05:34:03;12.83;;;6.67;;
24617;SDS011;12762;51.730;5.356;2022-12-26T05:36:33;10.60;;;6.43;;
24617;SDS011;12762;51.730;5.356;2022-12-26T05:39:06;11.30;;;6.37;;
24617;SDS011;12762;51.730;5.356;2022-12-26T05:41:34;11.43;;;6.87;;
24617;SDS011;12762;51.730;5.356;2022-12-26T05:44:01;12.17;;;6.67;;
24617;SDS011;12762;51.730;5.356;2022-12-26T05:46:29;12.30;;;6.97;;
24617;SDS011;12762;51.730;5.356;2022-12-26T05:48:55;11.03;;;6.63;;
24617;SDS011;12762;51.730;5.356;2022-12-26T05:51:22;12.30;;;6.47;;
24617;SDS011;12762;51.730;5.356;2022-12-26T05:53:49;11.27;;;6.70;;
24617;SDS011;12762;51.730;5.356;2022-12-26T05:56:17;11.40;;;6.77;;
24617;SDS011;12762;51.730;5.356;2022-12-26T05:58:45;11.03;;;6.37;;
24617;SDS011;12762;51.730;5.356;2022-12-26T06:03:40;12.67;;;6.90;;
24617;SDS011;12762;51.730;5.356;2022-12-26T06:06:12;12.67;;;6.97;;
24617;SDS011;12762;51.730;5.356;2022-12-26T06:08:40;12.07;;;7.27;;
24617;SDS011;12762;51.730;5.356;2022-12-26T06:11:10;12.47;;;6.83;;
24617;SDS011;12762;51.730;5.356;2022-12-26T06:13:39;12.03;;;6.60;;
24617;SDS011;12762;51.730;5.356;2022-12-26T06:16:07;12.70;;;7.23;;
24617;SDS011;12762;51.730;5.356;2022-12-26T06:18:36;10.93;;;7.10;;
24617;SDS011;12762;51.730;5.356;2022-12-26T06:21:07;11.57;;;6.97;;
24617;SDS011;12762;51.730;5.356;2022-12-26T06:23:36;14.40;;;7.20;;
24617;SDS011;12762;51.730;5.356;2022-12-26T06:26:03;13.20;;;7.07;;
24617;SDS011;12762;51.730;5.356;2022-12-26T06:28:35;11.40;;;7.10;;
24617;SDS011;12762;51.730;5.356;2022-12-26T06:31:10;11.93;;;7.37;;
24617;SDS011;12762;51.730;5.356;2022-12-26T06:33:39;13.57;;;7.20;;
24617;SDS011;12762;51.730;5.356;2022-12-26T06:36:08;11.87;;;7.30;;
24617;SDS011;12762;51.730;5.356;2022-12-26T06:38:37;11.93;;;6.93;;
24617;SDS011;12762;51.730;5.356;2022-12-26T06:41:04;11.27;;;7.27;;
24617;SDS011;12762;51.730;5.356;2022-12-26T06:43:40;11.57;;;6.90;;
24617;SDS011;12762;51.730;5.356;2022-12-26T06:46:09;10.63;;;6.80;;
24617;SDS011;12762;51.730;5.356;2022-12-26T06:48:42;9.53;;;6.40;;
24617;SDS011;12762;51.730;5.356;2022-12-26T06:51:13;13.57;;;6.53;;
24617;SDS011;12762;51.730;5.356;2022-12-26T06:53:42;11.23;;;6.97;;
24617;SDS011;12762;51.730;5.356;2022-12-26T06:56:13;12.03;;;7.13;;
24617;SDS011;12762;51.730;5.356;2022-12-26T06:58:44;9.90;;;6.27;;
24617;SDS011;12762;51.730;5.356;2022-12-26T07:01:16;12.77;;;6.63;;
24617;SDS011;12762;51.730;5.356;2022-12-26T07:03:45;11.93;;;6.93;;
24617;SDS011;12762;51.730;5.356;2022-12-26T07:06:30;10.63;;;5.90;;
24617;SDS011;12762;51.730;5.356;2022-12-26T07:08:59;12.30;;;6.43;;
24617;SDS011;12762;51.730;5.356;2022-12-26T07:11:29;9.93;;;6.07;;
24617;SDS011;12762;51.730;5.356;2022-12-26T07:13:57;9.90;;;4.90;;
24617;SDS011;12762;51.730;5.356;2022-12-26T07:16:24;7.20;;;4.80;;
24617;SDS011;12762;51.730;5.356;2022-12-26T07:18:52;9.20;;;5.57;;
24617;SDS011;12762;51.730;5.356;2022-12-26T07:21:20;8.90;;;4.93;;
24617;SDS011;12762;51.730;5.356;2022-12-26T07:23:48;12.57;;;5.20;;
24617;SDS011;12762;51.730;5.356;2022-12-26T07:26:15;7.37;;;4.60;;
24617;SDS011;12762;51.730;5.356;2022-12-26T07:28:44;9.27;;;4.67;;
24617;SDS011;12762;51.730;5.356;2022-12-26T07:31:24;8.33;;;4.97;;
24617;SDS011;12762;51.730;5.356;2022-12-26T07:33:54;8.83;;;4.50;;
24617;SDS011;12762;51.730;5.356;2022-12-26T07:36:21;8.63;;;4.70;;
24617;SDS011;12762;51.730;5.356;2022-12-26T07:38:52;6.10;;;4.17;;
24617;SDS011;12762;51.730;5.356;2022-12-26T07:41:19;6.73;;;3.60;;
24617;SDS011;12762;51.730;5.356;2022-12-26T07:44:05;6.73;;;3.10;;
24617;SDS011;12762;51.730;5.356;2022-12-26T07:46:34;6.60;;;3.20;;
24617;SDS011;12762;51.730;5.356;2022-12-26T07:49:01;7.23;;;3.30;;
24617;SDS011;12762;51.730;5.356;2022-12-26T07:51:28;6.73;;;2.97;;
24617;SDS011;12762;51.730;5.356;2022-12-26T07:53:55;4.43;;;2.77;;
24617;SDS011;12762;51.730;5.356;2022-12-26T07:56:22;6.93;;;3.17;;
24617;SDS011;12762;51.730;5.356;2022-12-26T07:58:49;5.63;;;3.00;;
24617;SDS011;12762;51.730;5.356;2022-12-26T08:01:17;6.47;;;2.87;;
24617;SDS011;12762;51.730;5.356;2022-12-26T08:03:46;5.67;;;2.90;;
24617;SDS011;12762;51.730;5.356;2022-12-26T08:06:14;5.73;;;3.00;;
24617;SDS011;12762;51.730;5.356;2022-12-26T08:08:42;7.63;;;2.77;;
24617;SDS011;12762;51.730;5.356;2022-12-26T08:11:17;6.77;;;2.70;;
24617;SDS011;12762;51.730;5.356;2022-12-26T08:13:47;7.13;;;2.80;;
24617;SDS011;12762;51.730;5.356;2022-12-26T08:16:16;5.73;;;2.70;;
24617;SDS011;12762;51.730;5.356;2022-12-26T08:18:43;7.33;;;3.10;;
24617;SDS011;12762;51.730;5.356;2022-12-26T08:21:13;7.57;;;3.13;;
24617;SDS011;12762;51.730;5.356;2022-12-26T08:23:40;5.60;;;2.70;;
24617;SDS011;12762;51.730;5.356;2022-12-26T08:26:07;7.07;;;2.80;;
24617;SDS011;12762;51.730;5.356;2022-12-26T08:28:36;4.80;;;2.53;;
24617;SDS011;12762;51.730;5.356;2022-12-26T08:31:06;4.53;;;2.40;;
24617;SDS011;12762;51.730;5.356;2022-12-26T08:33:34;7.10;;;2.57;;
24617;SDS011;12762;51.730;5.356;2022-12-26T08:36:02;3.47;;;2.17;;
24617;SDS011;12762;51.730;5.356;2022-12-26T08:38:30;5.73;;;2.40;;
24617;SDS011;12762;51.730;5.356;2022-12-26T08:40:59;7.37;;;2.83;;
24617;SDS011;12762;51.730;5.356;2022-12-26T08:43:27;5.13;;;2.80;;
24617;SDS011;12762;51.730;5.356;2022-12-26T08:46:14;7.90;;;2.50;;
24617;SDS011;12762;51.730;5.356;2022-12-26T08:48:42;7.17;;;2.10;;
24617;SDS011;12762;51.730;5.356;2022-12-26T08:51:14;5.40;;;2.70;;
24617;SDS011;12762;51.730;5.356;2022-12-26T08:53:48;5.03;;;2.40;;
24617;SDS011;12762;51.730;5.356;2022-12-26T08:56:17;4.73;;;2.40;;
24617;SDS011;12762;51.730;5.356;2022-12-26T08:58:46;5.50;;;2.40;;
24617;SDS011;12762;51.730;5.356;2022-12-26T09:01:17;5.00;;;2.20;;
24617;SDS011;12762;51.730;5.356;2022-12-26T09:03:45;4.17;;;2.10;;
24617;SDS011;12762;51.730;5.356;2022-12-26T09:06:13;5.47;;;2.13;;
24617;SDS011;12762;51.730;5.356;2022-12-26T09:08:40;5.60;;;2.00;;
24617;SDS011;12762;51.730;5.356;2022-12-26T09:11:09;4.97;;;2.13;;
24617;SDS011;12762;51.730;5.356;2022-12-26T09:13:38;5.23;;;1.90;;
24617;SDS011;12762;51.730;5.356;2022-12-26T09:16:17;6.57;;;2.33;;
24617;SDS011;12762;51.730;5.356;2022-12-26T09:18:52;5.53;;;2.00;;
24617;SDS011;12762;51.730;5.356;2022-12-26T09:21:20;5.37;;;1.97;;
24617;SDS011;12762;51.730;5.356;2022-12-26T09:23:47;3.50;;;1.83;;
24617;SDS011;12762;51.730;5.356;2022-12-26T09:26:15;3.87;;;1.87;;
24617;SDS011;12762;51.730;5.356;2022-12-26T09:28:44;4.37;;;1.90;;
24617;SDS011;12762;51.730;5.356;2022-12-26T09:31:15;4.43;;;2.33;;
24617;SDS011;12762;51.730;5.356;2022-12-26T09:33:44;6.83;;;2.63;;
24617;SDS011;12762;51.730;5.356;2022-12-26T09:36:13;5.00;;;2.23;;
24617;SDS011;12762;51.730;5.356;2022-12-26T09:38:43;7.63;;;2.00;;
24617;SDS011;12762;51.730;5.356;2022-12-26T09:55:27;5.70;;;1.90;;
24617;SDS011;12762;51.730;5.356;2022-12-26T09:58:10;6.63;;;1.97;;
24617;SDS011;12762;51.730;5.356;2022-12-26T10:00:57;7.77;;;2.17;;
24617;SDS011;12762;51.730;5.356;2022-12-26T10:03:33;5.20;;;1.70;;
24617;SDS011;12762;51.730;5.356;2022-12-26T10:06:18;6.70;;;1.47;;
24617;SDS011;12762;51.730;5.356;2022-12-26T10:14:30;4.13;;;1.47;;
24617;SDS011;12762;51.730;5.356;2022-12-26T10:17:30;7.80;;;1.63;;
24617;SDS011;12762;51.730;5.356;2022-12-26T10:23:40;7.57;;;2.60;;
24617;SDS011;12762;51.730;5.356;2022-12-26T10:25:58;8.33;;;2.37;;
24617;SDS011;12762;51.730;5.356;2022-12-26T10:36:49;7.83;;;1.13;;
24617;SDS011;12762;51.730;5.356;2022-12-26T10:39:39;9.23;;;1.47;;
24617;SDS011;12762;51.730;5.356;2022-12-26T10:42:36;6.37;;;1.20;;
24617;SDS011;12762;51.730;5.356;2022-12-26T10:45:12;7.40;;;1.40;;
24617;SDS011;12762;51.730;5.356;2022-12-26T10:47:58;12.40;;;1.60;;
24617;SDS011;12762;51.730;5.356;2022-12-26T10:50:30;6.73;;;1.67;;
24617;SDS011;12762;51.730;5.356;2022-12-26T10:53:02;14.13;;;2.47;;
24617;SDS011;12762;51.730;5.356;2022-12-26T10:55:31;7.77;;;1.50;;
24617;SDS011;12762;51.730;5.356;2022-12-26T10:58:18;13.63;;;2.10;;
24617;SDS011;12762;51.730;5.356;2022-12-26T11:00:53;6.13;;;1.27;;
24617;SDS011;12762;51.730;5.356;2022-12-26T11:03:20;9.17;;;1.77;;
24617;SDS011;12762;51.730;5.356;2022-12-26T11:05:48;11.93;;;1.70;;
24617;SDS011;12762;51.730;5.356;2022-12-26T11:08:38;10.23;;;1.63;;
24617;SDS011;12762;51.730;5.356;2022-12-26T11:11:13;9.03;;;1.40;;
24617;SDS011;12762;51.730;5.356;2022-12-26T11:13:54;9.93;;;1.97;;
24617;SDS011;12762;51.730;5.356;2022-12-26T11:18:57;12.07;;;1.40;;
24617;SDS011;12762;51.730;5.356;2022-12-26T11:21:34;6.53;;;1.20;;
24617;SDS011;12762;51.730;5.356;2022-12-26T11:26:33;12.80;;;1.37;;
24617;SDS011;12762;51.730;5.356;2022-12-26T11:31:31;6.87;;;1.20;;
24617;SDS011;12762;51.730;5.356;2022-12-26T11:33:59;11.40;;;1.77;;
24617;SDS011;12762;51.730;5.356;2022-12-26T11:36:27;9.03;;;1.97;;
24617;SDS011;12762;51.730;5.356;2022-12-26T11:39:03;6.43;;;1.40;;
24617;SDS011;12762;51.730;5.356;2022-12-26T11:41:36;4.93;;;1.10;;
24617;SDS011;12762;51.730;5.356;2022-12-26T11:52:01;3.67;;;1.30;;
24617;SDS011;12762;51.730;5.356;2022-12-26T11:54:49;6.63;;;1.30;;
24617;SDS011;12762;51.730;5.356;2022-12-26T11:57:18;9.07;;;1.30;;
24617;SDS011;12762;51.730;5.356;2022-12-26T11:59:47;5.50;;;1.30;;
24617;SDS011;12762;51.730;5.356;2022-12-26T12:02:24;7.77;;;1.40;;
24617;SDS011;12762;51.730;5.356;2022-12-26T12:04:58;8.03;;;1.40;;
24617;SDS011;12762;51.730;5.356;2022-12-26T12:13:13;8.60;;;1.50;;
24617;SDS011;12762;51.730;5.356;2022-12-26T12:15:59;7.87;;;1.30;;
24617;SDS011;12762;51.730;5.356;2022-12-26T12:21:15;5.97;;;1.43;;
24617;SDS011;12762;51.730;5.356;2022-12-26T12:26:38;6.60;;;1.20;;
24617;SDS011;12762;51.730;5.356;2022-12-26T12:32:27;3.60;;;0.90;;
24617;SDS011;12762;51.730;5.356;2022-12-26T12:37:43;4.03;;;1.20;;
24617;SDS011;12762;51.730;5.356;2022-12-26T12:40:34;4.30;;;1.33;;
24617;SDS011;12762;51.730;5.356;2022-12-26T12:51:43;5.63;;;1.30;;
24617;SDS011;12762;51.730;5.356;2022-12-26T13:02:53;3.47;;;0.97;;
24617;SDS011;12762;51.730;5.356;2022-12-26T13:05:24;7.47;;;1.10;;
24617;SDS011;12762;51.730;5.356;2022-12-26T13:08:23;7.93;;;1.13;;
24617;SDS011;12762;51.730;5.356;2022-12-26T13:10:54;5.50;;;1.00;;
24617;SDS011;12762;51.730;5.356;2022-12-26T13:13:26;6.03;;;1.33;;
24617;SDS011;12762;51.730;5.356;2022-12-26T13:16:05;4.57;;;1.00;;
24617;SDS011;12762;51.730;5.356;2022-12-26T13:18:55;4.20;;;1.07;;
24617;SDS011;12762;51.730;5.356;2022-12-26T13:21:26;5.10;;;1.00;;
24617;SDS011;12762;51.730;5.356;2022-12-26T13:24:19;5.00;;;1.00;;
24617;SDS011;12762;51.730;5.356;2022-12-26T13:29:44;6.17;;;2.10;;
24617;SDS011;12762;51.730;5.356;2022-12-26T13:32:16;3.20;;;1.00;;
24617;SDS011;12762;51.730;5.356;2022-12-26T13:34:52;4.50;;;1.10;;
24617;SDS011;12762;51.730;5.356;2022-12-26T13:42:44;2.43;;;0.77;;
24617;SDS011;12762;51.730;5.356;2022-12-26T13:55:52;3.10;;;0.73;;
24617;SDS011;12762;51.730;5.356;2022-12-26T14:01:48;4.63;;;0.80;;
24617;SDS011;12762;51.730;5.356;2022-12-26T14:17:11;5.77;;;1.03;;
24617;SDS011;12762;51.730;5.356;2022-12-26T14:23:00;5.37;;;0.90;;
24617;SDS011;12762;51.730;5.356;2022-12-26T14:28:29;5.07;;;1.03;;
24617;SDS011;12762;51.730;5.356;2022-12-26T14:31:15;5.87;;;0.83;;
24617;SDS011;12762;51.730;5.356;2022-12-26T14:36:27;3.80;;;0.80;;
24617;SDS011;12762;51.730;5.356;2022-12-26T14:42:09;2.10;;;0.87;;
24617;SDS011;12762;51.730;5.356;2022-12-26T14:44:57;3.97;;;1.13;;
24617;SDS011;12762;51.730;5.356;2022-12-26T14:58:46;9.17;;;1.10;;
24617;SDS011;12762;51.730;5.356;2022-12-26T15:06:41;5.40;;;1.30;;
24617;SDS011;12762;51.730;5.356;2022-12-26T15:20:43;8.20;;;1.93;;
24617;SDS011;12762;51.730;5.356;2022-12-26T15:32:05;6.03;;;1.40;;
24617;SDS011;12762;51.730;5.356;2022-12-26T15:34:49;7.47;;;1.53;;
24617;SDS011;12762;51.730;5.356;2022-12-26T15:40:26;2.53;;;1.00;;
24617;SDS011;12762;51.730;5.356;2022-12-26T15:45:58;8.53;;;2.17;;
24617;SDS011;12762;51.730;5.356;2022-12-26T15:57:22;9.97;;;2.03;;
24617;SDS011;12762;51.730;5.356;2022-12-26T15:59:57;4.20;;;1.60;;
24617;SDS011;12762;51.730;5.356;2022-12-26T16:03:05;5.77;;;2.07;;
24617;SDS011;12762;51.730;5.356;2022-12-26T16:09:02;4.10;;;1.20;;
24617;SDS011;12762;51.730;5.356;2022-12-26T16:14:23;3.50;;;1.50;;
24617;SDS011;12762;51.730;5.356;2022-12-26T16:19:43;8.40;;;1.70;;
24617;SDS011;12762;51.730;5.356;2022-12-26T16:22:15;3.90;;;1.53;;
24617;SDS011;12762;51.730;5.356;2022-12-26T16:25:02;3.53;;;1.10;;
24617;SDS011;12762;51.730;5.356;2022-12-26T16:27:31;11.13;;;1.57;;
24617;SDS011;12762;51.730;5.356;2022-12-26T16:30:03;7.87;;;2.33;;
24617;SDS011;12762;51.730;5.356;2022-12-26T16:32:37;9.87;;;3.57;;
24617;SDS011;12762;51.730;5.356;2022-12-26T16:37:46;10.77;;;2.60;;
24617;SDS011;12762;51.730;5.356;2022-12-26T16:42:44;5.43;;;1.70;;
24617;SDS011;12762;51.730;5.356;2022-12-26T16:45:47;12.73;;;2.47;;
24617;SDS011;12762;51.730;5.356;2022-12-26T16:48:16;11.10;;;3.13;;
24617;SDS011;12762;51.730;5.356;2022-12-26T16:50:50;12.33;;;3.40;;
24617;SDS011;12762;51.730;5.356;2022-12-26T16:53:20;10.37;;;2.87;;
24617;SDS011;12762;51.730;5.356;2022-12-26T16:58:42;11.27;;;2.73;;
24617;SDS011;12762;51.730;5.356;2022-12-26T17:01:11;9.00;;;3.40;;
24617;SDS011;12762;51.730;5.356;2022-12-26T17:03:42;9.03;;;2.80;;
24617;SDS011;12762;51.730;5.356;2022-12-26T17:06:34;8.90;;;2.70;;
24617;SDS011;12762;51.730;5.356;2022-12-26T17:09:09;7.93;;;2.67;;
24617;SDS011;12762;51.730;5.356;2022-12-26T17:11:52;8.33;;;2.00;;
24617;SDS011;12762;51.730;5.356;2022-12-26T17:14:26;7.57;;;2.77;;
24617;SDS011;12762;51.730;5.356;2022-12-26T17:16:58;10.50;;;3.50;;
24617;SDS011;12762;51.730;5.356;2022-12-26T17:19:47;16.07;;;6.17;;
24617;SDS011;12762;51.730;5.356;2022-12-26T17:22:26;6.80;;;2.33;;
24617;SDS011;12762;51.730;5.356;2022-12-26T17:30:38;15.40;;;2.07;;
24617;SDS011;12762;51.730;5.356;2022-12-26T17:33:11;12.57;;;2.50;;
24617;SDS011;12762;51.730;5.356;2022-12-26T17:35:51;7.03;;;1.83;;
24617;SDS011;12762;51.730;5.356;2022-12-26T17:38:52;9.47;;;1.93;;
24617;SDS011;12762;51.730;5.356;2022-12-26T17:41:19;8.93;;;1.80;;
24617;SDS011;12762;51.730;5.356;2022-12-26T17:43:46;10.27;;;2.33;;
24617;SDS011;12762;51.730;5.356;2022-12-26T17:46:15;8.60;;;1.93;;
24617;SDS011;12762;51.730;5.356;2022-12-26T17:48:43;9.27;;;2.57;;
24617;SDS011;12762;51.730;5.356;2022-12-26T17:51:15;7.47;;;1.87;;
24617;SDS011;12762;51.730;5.356;2022-12-26T17:53:46;12.23;;;1.80;;
24617;SDS011;12762;51.730;5.356;2022-12-26T17:56:17;9.53;;;2.50;;
24617;SDS011;12762;51.730;5.356;2022-12-26T17:58:47;9.00;;;2.10;;
24617;SDS011;12762;51.730;5.356;2022-12-26T18:01:14;7.97;;;1.63;;
24617;SDS011;12762;51.730;5.356;2022-12-26T18:03:47;8.20;;;2.47;;
24617;SDS011;12762;51.730;5.356;2022-12-26T18:06:14;10.20;;;1.90;;
24617;SDS011;12762;51.730;5.356;2022-12-26T18:08:42;9.83;;;2.20;;
24617;SDS011;12762;51.730;5.356;2022-12-26T18:11:10;11.07;;;2.57;;
24617;SDS011;12762;51.730;5.356;2022-12-26T18:13:39;12.37;;;2.33;;
24617;SDS011;12762;51.730;5.356;2022-12-26T18:16:09;9.43;;;2.07;;
24617;SDS011;12762;51.730;5.356;2022-12-26T18:18:41;8.47;;;2.40;;
24617;SDS011;12762;51.730;5.356;2022-12-26T18:21:10;5.37;;;1.70;;
24617;SDS011;12762;51.730;5.356;2022-12-26T18:23:40;10.50;;;2.10;;
24617;SDS011;12762;51.730;5.356;2022-12-26T18:26:13;5.90;;;2.50;;
24617;SDS011;12762;51.730;5.356;2022-12-26T18:28:52;13.33;;;2.50;;
24617;SDS011;12762;51.730;5.356;2022-12-26T18:31:19;11.23;;;2.40;;
24617;SDS011;12762;51.730;5.356;2022-12-26T18:33:46;9.57;;;2.47;;
24617;SDS011;12762;51.730;5.356;2022-12-26T18:36:14;7.13;;;1.57;;
24617;SDS011;12762;51.730;5.356;2022-12-26T18:38:42;12.03;;;2.40;;
24617;SDS011;12762;51.730;5.356;2022-12-26T18:41:12;7.37;;;2.10;;
24617;SDS011;12762;51.730;5.356;2022-12-26T18:43:40;13.77;;;2.40;;
24617;SDS011;12762;51.730;5.356;2022-12-26T18:46:28;7.77;;;2.47;;
24617;SDS011;12762;51.730;5.356;2022-12-26T18:48:55;5.87;;;1.77;;
24617;SDS011;12762;51.730;5.356;2022-12-26T18:51:23;5.23;;;1.43;;
24617;SDS011;12762;51.730;5.356;2022-12-26T18:53:53;7.60;;;1.70;;
24617;SDS011;12762;51.730;5.356;2022-12-26T18:56:20;10.70;;;2.60;;
24617;SDS011;12762;51.730;5.356;2022-12-26T18:58:49;6.30;;;2.03;;
24617;SDS011;12762;51.730;5.356;2022-12-26T19:01:23;8.27;;;2.10;;
24617;SDS011;12762;51.730;5.356;2022-12-26T19:03:50;5.27;;;2.07;;
24617;SDS011;12762;51.730;5.356;2022-12-26T19:06:21;12.97;;;2.17;;
24617;SDS011;12762;51.730;5.356;2022-12-26T19:08:49;8.87;;;1.70;;
24617;SDS011;12762;51.730;5.356;2022-12-26T19:11:16;5.47;;;1.70;;
24617;SDS011;12762;51.730;5.356;2022-12-26T19:13:43;8.13;;;2.03;;
24617;SDS011;12762;51.730;5.356;2022-12-26T19:16:10;7.33;;;1.70;;
24617;SDS011;12762;51.730;5.356;2022-12-26T19:18:37;8.13;;;2.40;;
24617;SDS011;12762;51.730;5.356;2022-12-26T19:21:04;10.43;;;1.80;;
24617;SDS011;12762;51.730;5.356;2022-12-26T19:23:37;8.00;;;2.27;;
24617;SDS011;12762;51.730;5.356;2022-12-26T19:26:08;9.60;;;1.80;;
24617;SDS011;12762;51.730;5.356;2022-12-26T19:28:36;7.47;;;2.00;;
24617;SDS011;12762;51.730;5.356;2022-12-26T19:31:10;11.80;;;2.63;;
24617;SDS011;12762;51.730;5.356;2022-12-26T19:33:38;5.43;;;2.47;;